Time;durP1;ratioP1;P1;durP2;ratioP2;P2;SDS_P1;SDS_P2;PMS_P1;PMS_P2;Temp;Humidity;BMP_temperature;BMP_pressure;BME280_temperature;BME280_humidity;BME280_pressure;Samples;Min_cycle;Max_cycle;Signal;HPM_P1;HPM_P2
2022/12/28 00:01:21;;;;;;;2.75;2.00;;;;;;;10.04;77.42;99109.88;5074443;28;20587;-59
2022/12/28 00:03:47;;;;;;;3.17;2.53;;;;;;;10.33;76.66;99160.00;5074592;28;20224;-59
2022/12/28 00:06:13;;;;;;;2.25;2.15;;;;;;;10.02;75.33;99103.09;5074555;28;20208;-59
2022/12/28 00:08:39;;;;;;;2.58;2.38;;;;;;;10.42;74.04;99164.63;5073649;28;20605;-59
2022/12/28 00:11:10;;;;;;;2.08;1.98;;;;;;;10.41;73.77;99160.38;5073896;28;20219;-59
2022/12/28 00:13:36;;;;;;;2.40;2.30;;;;;;;10.37;73.24;99161.47;5074515;28;20634;-59
2022/12/28 00:16:09;;;;;;;2.85;2.55;;;;;;;10.00;73.17;99104.94;5074354;28;20173;-59
2022/12/28 00:18:36;;;;;;;2.75;2.38;;;;;;;10.08;73.77;99118.28;5073820;28;20163;-59
2022/12/28 00:21:03;;;;;;;3.50;2.65;;;;;;;10.02;73.33;99103.09;5073733;28;20183;-59
2022/12/28 00:23:29;;;;;;;2.70;2.50;;;;;;;10.40;73.37;99169.91;5051423;28;20227;-59
2022/12/28 00:25:55;;;;;;;3.05;2.75;;;;;;;10.41;73.23;99170.75;5051291;28;20190;-59
2022/12/28 00:28:20;;;;;;;3.10;2.88;;;;;;;9.83;73.02;99082.59;5051348;28;20269;-59
2022/12/28 00:30:46;;;;;;;2.47;2.28;;;;;;;10.18;72.95;99132.38;5051371;28;20205;-58
2022/12/28 00:33:12;;;;;;;4.28;2.80;;;;;;;10.38;73.32;99150.19;5051338;28;20514;-59
2022/12/28 00:35:37;;;;;;;1.90;1.80;;;;;;;10.01;70.77;99101.41;5071439;28;20196;-59
2022/12/28 00:38:02;;;;;;;2.50;2.30;;;;;;;10.40;70.30;99171.66;5071241;28;20381;-59
2022/12/28 00:40:28;;;;;;;2.38;2.17;;;;;;;10.48;70.71;99172.06;5071442;28;20193;-59
2022/12/28 00:42:53;;;;;;;3.22;3.03;;;;;;;10.19;72.09;99126.28;5070885;28;20621;-59
2022/12/28 00:45:18;;;;;;;2.92;2.72;;;;;;;10.47;72.52;99183.34;5071007;28;20188;-59
2022/12/28 00:47:44;;;;;;;2.95;2.65;;;;;;;10.20;72.81;99120.19;5070883;28;20183;-59
2022/12/28 00:50:09;;;;;;;3.00;2.80;;;;;;;10.47;72.97;99173.00;5071531;28;20193;-59
2022/12/28 00:52:35;;;;;;;3.35;3.10;;;;;;;10.46;73.23;99176.50;5070764;28;20256;-59
2022/12/28 00:55:00;;;;;;;2.88;2.58;;;;;;;10.00;71.91;99094.59;5070879;28;20276;-59
2022/12/28 00:57:26;;;;;;;3.38;3.05;;;;;;;10.49;72.72;99168.53;5071230;28;20173;-59
2022/12/28 00:59:51;;;;;;;3.65;3.35;;;;;;;10.27;73.56;99140.47;5070569;28;20181;-59
2022/12/28 01:02:17;;;;;;;2.42;2.22;;;;;;;10.29;72.47;99137.81;5070738;28;20269;-59
2022/12/28 01:04:42;;;;;;;3.65;2.53;;;;;;;10.52;72.93;99176.16;5070446;28;20208;-59
2022/12/28 01:07:07;;;;;;;3.15;2.67;;;;;;;9.95;74.31;99096.59;5072738;28;20177;-59
2022/12/28 01:09:33;;;;;;;3.03;2.80;;;;;;;9.92;74.94;99096.78;5072531;28;20280;-59
2022/12/28 01:11:58;;;;;;;5.93;3.22;;;;;;;10.35;75.41;99178.84;5072548;28;20169;-59
2022/12/28 01:14:23;;;;;;;2.83;2.45;;;;;;;9.99;73.31;99137.69;5072817;28;20585;-59
2022/12/28 01:16:49;;;;;;;2.45;2.35;;;;;;;10.25;72.57;99195.78;5091288;28;20176;-59
2022/12/28 01:19:18;;;;;;;2.75;2.47;;;;;;;10.09;71.27;99156.19;5090762;28;20233;-59
2022/12/28 01:21:48;;;;;;;2.42;2.30;;;;;;;10.03;73.42;99159.03;5090705;28;20184;-59
2022/12/28 01:24:13;;;;;;;2.28;2.17;;;;;;;10.38;70.76;99200.19;5090514;28;20242;-59
2022/12/28 01:26:39;;;;;;;2.58;2.38;;;;;;;10.38;70.73;99199.34;5090557;28;20717;-59
2022/12/28 01:29:04;;;;;;;3.00;2.53;;;;;;;10.46;70.39;99186.84;5090483;28;20176;-59
2022/12/28 01:31:30;;;;;;;2.20;2.10;;;;;;;10.32;71.51;99166.06;5090577;28;20196;-59
2022/12/28 01:33:55;;;;;;;2.45;2.25;;;;;;;10.39;72.78;99180.34;5090922;28;20275;-59
2022/12/28 01:36:26;;;;;;;2.40;2.28;;;;;;;10.37;74.45;99208.03;5090650;28;20638;-59
2022/12/28 01:38:54;;;;;;;2.80;2.60;;;;;;;10.10;74.04;99157.84;5089782;28;20222;-59
2022/12/28 01:41:20;;;;;;;3.10;2.40;;;;;;;10.44;73.02;99199.03;5090296;28;20175;-59
2022/12/28 01:43:51;;;;;;;2.58;2.40;;;;;;;10.47;73.46;99201.44;5090203;28;20631;-59
2022/12/28 01:46:21;;;;;;;3.60;3.30;;;;;;;10.36;74.35;99171.00;5090810;28;20176;-59
2022/12/28 01:48:56;;;;;;;4.80;2.83;;;;;;;10.45;74.99;99191.16;5074240;28;20189;-59
2022/12/28 01:51:22;;;;;;;2.90;2.70;;;;;;;10.46;75.42;99186.84;5072989;28;20255;-59
2022/12/28 01:53:50;;;;;;;3.03;2.58;;;;;;;10.29;74.88;99169.69;5072416;28;20177;-59
2022/12/28 01:56:15;;;;;;;2.88;2.58;;;;;;;10.23;74.37;99162.25;5072884;28;20252;-59
2022/12/28 01:58:41;;;;;;;2.72;2.50;;;;;;;10.15;74.27;99145.50;5073131;28;20268;-59
2022/12/28 02:01:07;;;;;;;3.72;2.60;;;;;;;10.27;74.96;99188.78;5072631;28;20169;-59
2022/12/28 02:03:34;;;;;;;4.32;2.40;;;;;;;10.15;73.81;99166.19;5072195;28;20681;-60
2022/12/28 02:06:05;;;;;;;2.60;2.45;;;;;;;9.89;75.39;99143.44;5072240;28;20173;-59
2022/12/28 02:09:02;;;;;;;2.83;2.50;;;;;;;10.04;76.69;99189.22;5072389;28;20164;-59
2022/12/28 02:11:28;;;;;;;3.22;2.80;;;;;;;9.84;76.88;99186.81;5072392;28;20184;-59
2022/12/28 02:13:55;;;;;;;3.58;2.75;;;;;;;9.69;75.51;99146.28;5071881;28;20177;-59
2022/12/28 02:16:20;;;;;;;2.78;2.50;;;;;;;9.60;75.05;99140.78;5071956;28;20572;-59
2022/12/28 02:18:46;;;;;;;3.03;2.47;;;;;;;9.89;74.29;99193.41;5072442;28;20331;-59
2022/12/28 02:21:25;;;;;;;2.50;2.30;;;;;;;9.94;73.63;99188.00;5072152;28;20181;-59
2022/12/28 02:24:16;;;;;;;2.33;1.95;;;;;;;10.01;72.11;99194.50;5072626;28;20245;-59
2022/12/28 02:26:47;;;;;;;2.38;2.20;;;;;;;10.00;72.06;99198.84;5072088;28;20208;-59
2022/12/28 02:29:24;;;;;;;2.47;2.28;;;;;;;9.99;72.59;99191.97;5072090;28;20176;-59
2022/12/28 02:32:22;;;;;;;2.75;2.55;;;;;;;10.01;75.00;99192.75;5072233;28;20501;-59
2022/12/28 02:35:09;;;;;;;2.88;2.67;;;;;;;9.99;77.68;99196.34;5071457;28;20184;-59
2022/12/28 02:37:54;;;;;;;2.85;2.45;;;;;;;9.60;78.50;99136.44;5072663;28;20173;-59
2022/12/28 02:40:24;;;;;;;2.78;2.58;;;;;;;9.51;78.47;99130.91;5072239;28;20250;-60
2022/12/28 02:42:52;;;;;;;4.78;2.40;;;;;;;9.44;77.15;99135.56;5071782;28;20193;-59
2022/12/28 02:51:28;;;;;;;2.85;2.60;;;;;;;9.85;76.44;99178.97;5075828;28;20619;-60
2022/12/28 02:56:05;;;;;;;4.05;2.47;;;;;;;9.62;77.14;99129.41;5075476;28;20169;-59
2022/12/28 02:57:03;;;;;;;2.45;2.35;;;;;;;9.58;77.64;99133.09;5075126;28;20164;-59
2022/12/28 02:59:54;;;;;;;3.30;3.00;;;;;;;9.88;78.08;99178.78;5075344;28;20564;-59
2022/12/28 03:02:38;;;;;;;2.83;2.63;;;;;;;9.97;78.08;99186.06;5075693;28;20248;-60
2022/12/28 03:08:47;;;;;;;2.30;2.20;;;;;;;9.87;76.59;99187.47;5075222;28;20237;-59
2022/12/28 03:11:21;;;;;;;3.08;2.88;;;;;;;9.68;77.59;99168.69;5075213;28;20621;-60
2022/12/28 03:13:56;;;;;;;2.50;2.35;;;;;;;9.76;77.74;99188.97;5075990;28;20262;-60
2022/12/28 03:31:06;;;;;;;3.17;2.63;;;;;;;9.85;75.43;99180.72;5072792;28;20367;-59
2022/12/28 03:33:43;;;;;;;4.00;3.47;;;;;;;9.89;76.89;99187.41;5073056;28;20258;-58
2022/12/28 03:36:08;;;;;;;3.15;2.83;;;;;;;9.82;77.69;99196.41;5073199;28;20243;-58
2022/12/28 03:39:05;;;;;;;5.80;3.30;;;;;;;9.67;78.58;99188.63;5072334;28;20177;-59
2022/12/28 03:41:40;;;;;;;3.05;2.75;;;;;;;9.13;78.83;99101.91;5072988;28;20234;-59
2022/12/28 03:44:14;;;;;;;3.28;2.90;;;;;;;9.65;79.44;99188.69;5072750;28;20211;-60
2022/12/28 03:46:40;;;;;;;3.45;2.60;;;;;;;9.62;78.94;99206.13;5072786;28;20169;-59
2022/12/28 03:49:05;;;;;;;3.65;3.35;;;;;;;9.19;79.90;99135.16;5072923;28;20200;-59
2022/12/28 03:51:32;;;;;;;3.88;3.33;;;;;;;9.54;80.52;99193.59;5072081;28;20203;-59
2022/12/28 03:53:57;;;;;;;3.75;3.45;;;;;;;9.16;81.30;99144.81;5072127;28;20185;-59
2022/12/28 03:56:25;;;;;;;3.50;3.08;;;;;;;9.16;81.43;99156.00;5073824;28;20188;-59
2022/12/28 03:58:51;;;;;;;2.75;2.53;;;;;;;9.55;79.65;99205.59;5074296;28;20184;-58
2022/12/28 04:01:17;;;;;;;4.38;2.30;;;;;;;9.60;75.26;99213.13;5073661;28;20181;-59
2022/12/28 04:03:42;;;;;;;2.10;2.00;;;;;;;9.20;75.62;99152.31;5074726;28;20200;-58
2022/12/28 04:06:12;;;;;;;3.83;2.08;;;;;;;9.22;75.41;99163.44;5071954;28;20186;-59
2022/12/28 04:08:37;;;;;;;3.35;2.70;;;;;;;9.45;74.74;99188.91;5071711;28;20212;-58
2022/12/28 04:11:03;;;;;;;2.88;2.53;;;;;;;9.69;75.25;99208.31;5072224;28;20193;-58
2022/12/28 04:13:31;;;;;;;2.38;2.20;;;;;;;9.57;75.27;99165.84;5071640;28;20576;-58
2022/12/28 04:15:59;;;;;;;2.30;2.20;;;;;;;9.56;75.54;99155.56;5071752;28;20177;-59
2022/12/28 04:18:25;;;;;;;3.60;2.47;;;;;;;9.98;74.51;99215.34;5071618;28;20177;-59
2022/12/28 04:20:52;;;;;;;3.08;2.13;;;;;;;9.89;74.10;99205.50;5071753;28;20189;-59
2022/12/28 04:23:17;;;;;;;2.65;2.08;;;;;;;9.97;74.05;99214.50;5071445;28;20201;-58
2022/12/28 04:25:43;;;;;;;2.38;2.13;;;;;;;9.81;75.46;99202.50;5071395;28;20550;-58
2022/12/28 04:28:08;;;;;;;2.70;1.98;;;;;;;9.87;75.43;99212.50;5071427;28;20231;-58
2022/12/28 04:30:33;;;;;;;2.58;2.47;;;;;;;9.75;76.91;99202.81;5071010;28;20264;-58
2022/12/28 04:32:59;;;;;;;2.40;2.20;;;;;;;9.47;76.90;99147.47;5071658;28;20232;-59
2022/12/28 04:35:24;;;;;;;2.70;2.50;;;;;;;9.38;77.44;99153.97;5071554;28;20188;-60
2022/12/28 04:37:49;;;;;;;3.20;2.22;;;;;;;9.66;77.64;99208.44;5072972;28;20263;-60
2022/12/28 04:40:15;;;;;;;2.30;2.20;;;;;;;9.39;78.31;99178.06;5073553;28;20177;-60
2022/12/28 04:42:40;;;;;;;2.35;2.15;;;;;;;9.69;77.27;99214.28;5073310;28;20252;-59
2022/12/28 04:45:06;;;;;;;3.03;2.60;;;;;;;9.43;76.57;99174.41;5073409;28;20173;-59
2022/12/28 04:47:32;;;;;;;2.28;2.17;;;;;;;9.64;76.46;99194.78;5073318;28;20173;-59
2022/12/28 04:49:57;;;;;;;3.35;3.08;;;;;;;9.86;74.81;99218.59;5073868;28;20172;-59
2022/12/28 04:52:23;;;;;;;2.70;2.47;;;;;;;9.53;76.71;99168.66;5073211;28;20169;-59
2022/12/28 04:54:48;;;;;;;3.15;2.75;;;;;;;9.50;76.49;99165.41;5073527;28;20650;-60
2022/12/28 04:57:14;;;;;;;2.90;2.70;;;;;;;9.76;76.73;99222.56;5073664;28;20173;-60
2022/12/28 04:59:39;;;;;;;2.58;2.38;;;;;;;9.23;77.42;99133.25;5073057;28;20200;-59
2022/12/28 05:02:05;;;;;;;2.60;2.40;;;;;;;9.26;77.90;99135.69;5072801;28;20199;-59
2022/12/28 05:04:31;;;;;;;3.08;2.42;;;;;;;9.68;79.13;99229.88;5072887;28;20288;-59
2022/12/28 05:06:56;;;;;;;2.40;2.17;;;;;;;9.57;78.22;99220.09;5073472;28;20256;-59
2022/12/28 05:09:22;;;;;;;2.75;2.55;;;;;;;9.45;78.94;99224.22;5072924;28;20181;-60
2022/12/28 05:11:47;;;;;;;3.28;2.65;;;;;;;9.15;79.97;99189.63;5072899;28;20260;-60
2022/12/28 05:14:12;;;;;;;2.42;2.20;;;;;;;9.20;79.43;99179.91;5072451;28;20611;-59
2022/12/28 05:16:38;;;;;;;2.90;2.70;;;;;;;9.43;79.44;99216.53;5070622;28;20185;-59
2022/12/28 05:19:03;;;;;;;3.80;2.47;;;;;;;9.48;79.99;99224.06;5070699;28;20189;-59
2022/12/28 05:21:31;;;;;;;3.13;2.83;;;;;;;9.58;79.92;99233.84;5070593;28;20201;-60
2022/12/28 05:23:57;;;;;;;2.40;2.30;;;;;;;9.20;80.47;99191.06;5071094;28;20201;-60
2022/12/28 05:26:26;;;;;;;4.50;2.60;;;;;;;9.57;80.76;99259.75;5070454;28;20216;-60
2022/12/28 05:28:52;;;;;;;3.72;2.65;;;;;;;8.85;81.40;99155.84;5070580;28;20287;-59
2022/12/28 05:31:20;;;;;;;2.95;2.75;;;;;;;9.15;81.38;99199.97;5070258;28;20674;-59
2022/12/28 05:33:46;;;;;;;3.20;2.72;;;;;;;9.13;81.27;99206.91;5070770;28;20181;-60
2022/12/28 05:36:19;;;;;;;3.25;2.95;;;;;;;9.53;81.14;99269.41;5070234;28;20185;-60
2022/12/28 05:38:46;;;;;;;3.72;2.72;;;;;;;9.24;80.67;99215.81;5070192;28;20181;-59
2022/12/28 05:41:17;;;;;;;3.83;2.83;;;;;;;9.11;81.50;99221.66;5070676;28;20225;-59
2022/12/28 05:43:43;;;;;;;2.60;2.40;;;;;;;9.24;82.00;99257.13;5070030;28;20208;-59
2022/12/28 05:46:15;;;;;;;2.35;2.15;;;;;;;9.09;83.51;99262.22;5070060;28;20689;-59
2022/12/28 05:48:42;;;;;;;2.88;2.67;;;;;;;8.55;83.06;99170.25;5072308;28;20188;-59
2022/12/28 05:51:10;;;;;;;2.67;2.53;;;;;;;9.02;83.90;99264.25;5072444;28;20173;-59
2022/12/28 05:53:36;;;;;;;4.75;2.58;;;;;;;9.02;84.33;99279.75;5072690;28;20189;-59
2022/12/28 05:56:07;;;;;;;4.68;3.53;;;;;;;9.05;84.34;99282.19;5072335;28;20206;-59
2022/12/28 05:58:33;;;;;;;2.38;2.20;;;;;;;8.82;83.69;99232.56;5072295;28;20185;-59
2022/12/28 06:01:13;;;;;;;2.80;2.60;;;;;;;9.11;83.84;99291.38;5072541;28;20172;-59
2022/12/28 06:03:39;;;;;;;3.40;3.10;;;;;;;8.86;84.23;99255.56;5072720;28;20200;-59
2022/12/28 06:06:05;;;;;;;3.65;2.83;;;;;;;8.98;84.21;99293.69;5072270;28;20667;-59
2022/12/28 06:08:30;;;;;;;2.97;2.78;;;;;;;8.64;83.84;99234.31;5072517;28;20235;-59
2022/12/28 06:11:02;;;;;;;3.47;3.15;;;;;;;8.59;83.76;99220.78;5071855;28;20173;-59
2022/12/28 06:13:29;;;;;;;3.45;2.80;;;;;;;8.94;83.62;99284.44;5072223;28;20169;-59
2022/12/28 06:15:54;;;;;;;2.47;2.28;;;;;;;9.02;83.79;99295.22;5072146;28;20176;-59
2022/12/28 06:18:19;;;;;;;3.05;2.70;;;;;;;8.94;83.86;99288.75;5072122;28;20173;-59
2022/12/28 06:20:45;;;;;;;2.90;2.70;;;;;;;8.74;83.42;99245.03;5072062;28;20318;-59
2022/12/28 06:23:10;;;;;;;3.08;2.65;;;;;;;9.00;83.15;99299.66;5072354;28;20196;-59
2022/12/28 06:25:37;;;;;;;3.50;3.20;;;;;;;8.76;82.40;99246.63;5076459;28;20172;-59
2022/12/28 06:28:03;;;;;;;2.70;2.53;;;;;;;9.04;82.50;99308.88;5076304;28;20188;-59
2022/12/28 06:30:28;;;;;;;5.05;2.65;;;;;;;9.11;82.53;99302.53;5076067;28;20522;-58
2022/12/28 06:32:56;;;;;;;4.50;3.65;;;;;;;8.58;82.12;99208.81;5076512;28;20173;-59
2022/12/28 06:35:22;;;;;;;3.30;3.00;;;;;;;8.63;82.56;99226.63;5075935;28;20262;-59
2022/12/28 06:37:48;;;;;;;3.50;3.20;;;;;;;9.09;82.24;99300.94;5076136;28;20227;-59
2022/12/28 06:40:14;;;;;;;3.70;3.38;;;;;;;9.11;81.78;99291.38;5075760;28;20173;-59
2022/12/28 06:42:39;;;;;;;4.70;3.92;;;;;;;9.21;81.25;99298.59;5076194;28;20177;-59
2022/12/28 06:45:05;;;;;;;3.53;3.22;;;;;;;9.17;81.71;99306.56;5075708;28;20184;-59
2022/12/28 06:47:32;;;;;;;2.95;2.72;;;;;;;8.92;81.88;99250.13;5075275;28;20584;-59
2022/12/28 06:49:58;;;;;;;3.78;3.47;;;;;;;8.78;82.84;99239.63;5075549;28;20649;-60
2022/12/28 06:52:23;;;;;;;3.97;3.20;;;;;;;8.83;83.36;99250.56;5075562;28;20177;-59
2022/12/28 06:54:49;;;;;;;14.43;5.35;;;;;;;9.01;84.18;99306.47;5075729;28;20172;-59
2022/12/28 06:57:14;;;;;;;4.20;3.67;;;;;;;8.82;84.00;99259.22;5075485;28;20593;-59
2022/12/28 06:59:39;;;;;;;3.90;3.25;;;;;;;8.97;84.59;99299.78;5075071;28;20189;-59
2022/12/28 07:02:05;;;;;;;3.20;2.67;;;;;;;8.82;83.80;99253.22;5075312;28;20574;-60
2022/12/28 07:04:30;;;;;;;6.82;5.53;;;;;;;9.02;84.04;99297.00;5074946;28;20235;-59
2022/12/28 07:06:56;;;;;;;3.90;3.60;;;;;;;8.45;84.12;99197.38;5075099;28;20272;-59
2022/12/28 07:09:21;;;;;;;4.55;4.05;;;;;;;8.67;84.44;99246.22;5075011;28;20184;-59
2022/12/28 07:11:49;;;;;;;7.47;5.20;;;;;;;8.81;83.83;99242.09;5075219;28;20590;-59
2022/12/28 07:14:14;;;;;;;7.57;6.50;;;;;;;8.90;83.93;99266.59;5074587;28;20177;-59
2022/12/28 07:16:40;;;;;;;7.55;5.38;;;;;;;8.92;83.47;99255.28;5075236;28;20507;-60
2022/12/28 07:19:06;;;;;;;9.07;6.25;;;;;;;9.22;83.17;99305.44;5075042;28;20653;-60
2022/12/28 07:21:34;;;;;;;8.02;6.00;;;;;;;9.13;83.57;99305.88;5074984;28;20169;-59
2022/12/28 07:23:59;;;;;;;10.02;5.88;;;;;;;9.12;83.84;99319.69;5074835;28;20608;-59
2022/12/28 07:26:27;;;;;;;4.70;4.30;;;;;;;9.21;82.59;99314.06;5074944;28;20177;-59
2022/12/28 07:28:54;;;;;;;6.53;5.05;;;;;;;9.37;81.95;99334.84;5074969;28;20161;-59
2022/12/28 07:31:25;;;;;;;7.47;4.63;;;;;;;9.00;80.83;99271.25;5074912;28;20207;-59
2022/12/28 07:33:54;;;;;;;7.25;4.90;;;;;;;9.23;80.95;99301.94;5074536;28;20655;-60
2022/12/28 07:36:21;;;;;;;10.32;6.75;;;;;;;9.22;81.48;99300.28;5073694;28;20292;-59
2022/12/28 07:38:47;;;;;;;8.13;5.15;;;;;;;9.35;81.69;99319.41;5074684;28;20198;-60
2022/12/28 07:41:18;;;;;;;6.55;4.60;;;;;;;9.53;82.07;99328.84;5074668;28;20173;-60
2022/12/28 07:43:43;;;;;;;6.70;6.00;;;;;;;9.71;81.40;99351.19;5074691;28;20196;-59
2022/12/28 07:46:12;;;;;;;5.90;4.80;;;;;;;9.44;80.21;99293.13;5074618;28;20579;-59
2022/12/28 07:48:39;;;;;;;10.50;7.20;;;;;;;9.60;80.51;99326.81;5074422;28;20184;-59
2022/12/28 07:51:12;;;;;;;10.40;7.30;;;;;;;9.68;81.20;99352.16;5074209;28;20177;-59
2022/12/28 07:53:38;;;;;;;9.75;7.88;;;;;;;9.51;81.49;99322.06;5074492;28;20688;-59
2022/12/28 07:56:04;;;;;;;10.43;8.57;;;;;;;9.92;81.63;99394.06;5074700;28;20181;-59
2022/12/28 07:58:30;;;;;;;6.30;5.70;;;;;;;9.99;80.36;99391.06;5074293;28;20242;-59
2022/12/28 08:01:03;;;;;;;8.80;5.63;;;;;;;10.00;80.14;99402.25;5074841;28;20264;-59
2022/12/28 08:03:28;;;;;;;7.40;4.95;;;;;;;9.37;80.04;99299.50;5074181;28;20184;-59
2022/12/28 08:05:53;;;;;;;4.78;4.30;;;;;;;10.02;79.47;99409.00;5074138;28;20646;-60
2022/12/28 08:08:19;;;;;;;5.30;4.10;;;;;;;10.03;78.61;99399.50;5073826;28;20201;-60
2022/12/28 08:10:44;;;;;;;4.55;3.92;;;;;;;10.22;77.07;99410.63;5074066;28;20623;-60
2022/12/28 08:13:09;;;;;;;5.10;4.28;;;;;;;10.18;77.60;99403.94;5074506;28;20184;-60
2022/12/28 08:15:35;;;;;;;8.68;5.47;;;;;;;9.95;77.94;99375.78;5074219;28;20180;-60
2022/12/28 08:18:00;;;;;;;8.73;7.22;;;;;;;10.13;78.56;99395.56;5073940;28;20709;-59
2022/12/28 08:20:26;;;;;;;10.95;7.85;;;;;;;9.92;78.14;99357.88;5073515;28;20213;-59
2022/12/28 08:22:51;;;;;;;10.18;7.38;;;;;;;9.92;78.33;99360.44;5073749;28;20642;-59
2022/12/28 08:25:16;;;;;;;10.07;7.60;;;;;;;10.26;78.42;99412.13;5074308;28;20272;-58
2022/12/28 08:27:42;;;;;;;10.45;7.32;;;;;;;10.05;78.50;99369.28;5073723;28;20552;-59
2022/12/28 08:30:08;;;;;;;9.35;7.05;;;;;;;10.04;78.73;99370.19;5073662;28;20183;-59
2022/12/28 08:32:33;;;;;;;8.15;6.65;;;;;;;10.39;78.58;99420.94;5073750;28;20323;-59
2022/12/28 08:34:59;;;;;;;9.57;6.85;;;;;;;10.15;76.23;99378.25;5073521;28;20631;-59
2022/12/28 08:37:24;;;;;;;10.43;6.55;;;;;;;10.45;73.02;99413.69;5073517;28;20173;-59
2022/12/28 08:39:50;;;;;;;14.18;6.78;;;;;;;10.47;71.83;99411.03;5073464;28;20268;-59
2022/12/28 08:42:15;;;;;;;11.85;7.43;;;;;;;9.92;71.01;99321.66;5073703;28;20169;-59
2022/12/28 08:44:40;;;;;;;5.97;4.97;;;;;;;10.10;69.61;99355.19;5073481;28;20197;-59
2022/12/28 08:47:06;;;;;;;14.57;7.50;;;;;;;9.81;69.78;99309.28;5073113;28;20169;-59
2022/12/28 08:49:31;;;;;;;8.50;4.88;;;;;;;10.03;69.23;99360.72;5072952;28;20222;-60
2022/12/28 08:51:57;;;;;;;10.05;5.80;;;;;;;10.27;70.22;99413.81;5072915;28;20180;-60
2022/12/28 08:54:22;;;;;;;11.57;6.57;;;;;;;10.28;70.69;99410.31;5073457;28;20554;-59
2022/12/28 08:56:48;;;;;;;8.98;5.57;;;;;;;10.04;69.04;99346.94;5073032;28;20687;-60
2022/12/28 08:59:16;;;;;;;13.73;9.75;;;;;;;9.86;69.84;99311.66;5073093;28;20174;-59
2022/12/28 09:01:43;;;;;;;20.60;12.57;;;;;;;10.37;70.33;99402.06;5073561;28;20177;-60
2022/12/28 09:04:13;;;;;;;18.08;12.23;;;;;;;10.24;70.77;99380.34;5073003;28;20207;-60
2022/12/28 09:06:38;;;;;;;17.45;11.60;;;;;;;10.53;71.54;99418.47;5073001;28;20177;-59
2022/12/28 09:09:06;;;;;;;11.93;8.65;;;;;;;10.50;71.88;99395.34;5073103;28;20177;-58
2022/12/28 09:11:36;;;;;;;13.25;7.70;;;;;;;10.22;72.19;99343.38;5073107;28;20287;-59
2022/12/28 09:14:03;;;;;;;9.60;6.63;;;;;;;10.55;71.76;99390.75;5073640;28;20181;-60
2022/12/28 09:16:28;;;;;;;7.10;4.93;;;;;;;10.39;70.15;99356.28;5072782;28;20263;-60
2022/12/28 09:18:56;;;;;;;7.18;5.28;;;;;;;10.42;70.46;99363.84;5072722;28;20262;-60
2022/12/28 09:21:26;;;;;;;13.88;9.40;;;;;;;10.73;70.80;99410.50;5072764;28;20177;-60
2022/12/28 09:23:53;;;;;;;17.70;9.70;;;;;;;10.20;70.44;99320.19;5073251;28;20224;-60
2022/12/28 09:26:30;;;;;;;14.23;9.70;;;;;;;10.77;71.17;99409.41;5072864;28;20183;-60
2022/12/28 09:28:58;;;;;;;22.90;13.02;;;;;;;10.73;71.41;99402.75;5073444;28;20169;-59
2022/12/28 09:31:26;;;;;;;20.30;13.18;;;;;;;10.44;71.84;99344.75;5072561;28;20229;-60
2022/12/28 09:34:01;;;;;;;18.13;11.52;;;;;;;10.88;71.86;99410.50;5073100;28;20169;-60
2022/12/28 09:36:30;;;;;;;15.73;9.98;;;;;;;10.54;72.19;99351.09;5073143;28;20168;-60
2022/12/28 09:38:56;;;;;;;22.65;12.05;;;;;;;10.89;72.43;99411.34;5072533;28;20184;-60
2022/12/28 09:41:40;;;;;;;24.30;13.25;;;;;;;10.90;72.75;99415.59;5072516;28;20252;-60
2022/12/28 09:44:14;;;;;;;24.20;13.57;;;;;;;10.93;72.49;99416.28;5072452;28;20196;-60
2022/12/28 09:47:18;;;;;;;26.67;14.23;;;;;;;10.95;72.78;99406.66;5072456;28;20176;-59
2022/12/28 09:49:56;;;;;;;22.85;11.30;;;;;;;10.99;72.70;99403.00;5070664;28;20180;-60
2022/12/28 09:52:24;;;;;;;16.48;9.98;;;;;;;10.70;72.08;99343.34;5070438;28;20234;-59
2022/12/28 09:54:50;;;;;;;15.57;9.13;;;;;;;10.62;71.94;99330.81;5070460;28;20193;-59
2022/12/28 09:57:17;;;;;;;14.40;8.50;;;;;;;11.03;71.91;99391.53;5070309;28;20185;-60
2022/12/28 09:59:45;;;;;;;11.02;8.45;;;;;;;11.07;71.98;99394.78;5067348;28;20177;-61
2022/12/28 10:02:31;;;;;;;17.33;11.40;;;;;;;11.10;72.13;99389.47;5049234;28;20192;-60
2022/12/28 10:04:56;;;;;;;37.80;17.77;;;;;;;11.11;72.79;99389.38;5049916;28;20205;-59
2022/12/28 10:07:22;;;;;;;36.08;18.02;;;;;;;10.81;72.81;99326.31;5050286;28;20186;-60
2022/12/28 10:09:48;;;;;;;9.77;7.05;;;;;;;11.24;70.15;99379.16;5049854;28;20180;-59
2022/12/28 10:12:18;;;;;;;9.15;6.22;;;;;;;11.24;69.90;99380.00;5049823;28;20636;-59
2022/12/28 10:14:47;;;;;;;14.38;8.80;;;;;;;11.29;69.83;99380.59;5049941;28;20236;-59
2022/12/28 10:17:15;;;;;;;22.65;9.23;;;;;;;11.06;70.05;99337.00;5049730;28;20174;-60
2022/12/28 10:19:43;;;;;;;26.27;15.93;;;;;;;11.04;70.60;99325.06;5049761;28;20272;-60
2022/12/28 10:22:15;;;;;;;51.75;26.55;;;;;;;11.42;71.82;99372.94;5029936;28;20218;-60
2022/12/28 10:24:42;;;;;;;40.47;22.88;;;;;;;11.28;72.57;99347.84;5030570;28;20202;-59
2022/12/28 10:27:16;;;;;;;33.72;20.08;;;;;;;11.51;73.48;99372.44;5029948;28;20204;-60
2022/12/28 10:29:43;;;;;;;35.58;19.55;;;;;;;11.16;73.62;99312.22;5029772;28;20598;-60
2022/12/28 10:32:11;;;;;;;34.13;20.60;;;;;;;11.53;73.97;99355.03;4990286;28;20235;-60
2022/12/28 10:34:51;;;;;;;33.17;19.70;;;;;;;11.52;73.72;99353.34;4991109;28;20192;-60
2022/12/28 10:37:18;;;;;;;30.92;19.90;;;;;;;11.60;73.95;99353.78;4990527;28;20705;-60
2022/12/28 10:39:54;;;;;;;35.65;20.83;;;;;;;11.66;74.10;99368.97;4990513;28;20183;-60
2022/12/28 10:42:28;;;;;;;25.92;14.48;;;;;;;11.44;73.10;99316.69;4990483;28;20234;-60
2022/12/28 10:45:01;;;;;;;29.15;16.65;;;;;;;11.74;73.32;99365.00;4990857;28;20187;-59
2022/12/28 10:47:40;;;;;;;19.70;11.80;;;;;;;11.61;73.42;99337.31;4990536;28;20270;-59
2022/12/28 10:50:05;;;;;;;18.80;11.32;;;;;;;11.54;74.31;99320.41;4990949;28;20270;-60
2022/12/28 10:52:31;;;;;;;19.88;12.02;;;;;;;11.66;73.36;99340.47;5005859;28;20269;-60
2022/12/28 10:54:56;;;;;;;17.92;9.85;;;;;;;11.83;72.64;99369.69;5049448;28;20691;-59
2022/12/28 10:57:25;;;;;;;19.55;11.00;;;;;;;11.64;73.22;99383.78;5049774;28;20256;-60
2022/12/28 10:59:50;;;;;;;7.93;6.22;;;;;;;10.77;75.21;99308.44;5049389;28;20662;-60
2022/12/28 11:02:23;;;;;;;14.18;8.90;;;;;;;10.19;78.01;99271.97;5052524;28;20193;-60
2022/12/28 11:05:03;;;;;;;31.00;16.92;;;;;;;10.82;77.44;99355.63;5071598;28;20189;-59
2022/12/28 11:07:37;;;;;;;18.83;10.32;;;;;;;10.85;77.51;99348.53;5071329;28;20180;-60
2022/12/28 11:10:23;;;;;;;16.02;8.07;;;;;;;10.74;77.97;99318.97;5072242;28;20173;-60
2022/12/28 11:12:51;;;;;;;8.52;7.13;;;;;;;10.89;77.90;99326.72;5075183;28;20696;-60
2022/12/28 11:15:19;;;;;;;9.50;6.70;;;;;;;11.21;77.64;99368.97;5075134;28;20311;-60
2022/12/28 11:17:53;;;;;;;17.65;7.93;;;;;;;11.04;77.76;99340.59;5075087;28;20213;-60
2022/12/28 11:20:23;;;;;;;13.65;8.25;;;;;;;11.26;77.99;99372.16;5075346;28;20518;-60
2022/12/28 11:22:50;;;;;;;15.25;10.23;;;;;;;10.97;77.66;99318.56;5075060;28;20256;-60
2022/12/28 11:25:17;;;;;;;16.40;8.38;;;;;;;11.22;77.12;99381.00;5075766;28;20205;-60
2022/12/28 11:27:45;;;;;;;16.48;9.55;;;;;;;10.83;77.73;99321.91;5075496;28;20184;-60
2022/12/28 11:30:16;;;;;;;9.60;6.65;;;;;;;11.22;76.91;99378.41;5074843;28;20169;-59
2022/12/28 11:32:49;;;;;;;10.55;7.50;;;;;;;11.22;76.86;99375.81;5075872;28;20221;-60
2022/12/28 11:35:18;;;;;;;13.38;7.65;;;;;;;10.87;77.07;99312.19;5074865;28;20242;-60
2022/12/28 11:38:29;;;;;;;15.20;9.00;;;;;;;11.21;76.45;99374.16;5075261;28;20179;-60
2022/12/28 11:40:54;;;;;;;16.98;10.70;;;;;;;10.81;76.82;99328.06;5074760;28;20177;-59
2022/12/28 11:43:29;;;;;;;14.23;7.82;;;;;;;10.96;75.28;99376.41;5074761;28;20197;-59
2022/12/28 11:45:54;;;;;;;11.18;6.95;;;;;;;10.98;75.38;99378.00;5075038;28;20177;-59
2022/12/28 11:48:48;;;;;;;7.53;5.30;;;;;;;10.67;74.37;99315.03;5074496;28;20183;-60
2022/12/28 11:51:13;;;;;;;8.88;5.97;;;;;;;10.98;74.93;99372.81;5075330;28;20161;-60
2022/12/28 11:53:45;;;;;;;7.13;5.97;;;;;;;10.97;75.48;99370.34;5074422;28;20643;-60
2022/12/28 11:56:43;;;;;;;9.25;6.35;;;;;;;10.91;75.19;99370.69;5074492;28;20185;-60
2022/12/28 11:59:20;;;;;;;7.43;6.32;;;;;;;10.94;75.31;99370.50;5072063;28;20251;-60
2022/12/28 12:01:47;;;;;;;8.18;6.15;;;;;;;10.97;75.25;99359.97;5071886;28;20738;-60
2022/12/28 12:04:25;;;;;;;8.73;6.53;;;;;;;10.79;75.13;99312.63;5071970;28;20208;-61
2022/12/28 12:06:50;;;;;;;9.98;7.43;;;;;;;11.12;74.34;99365.16;5072744;28;20157;-60